createdAt,value
2022-12-03T00:01:32.291Z,20.50
2022-12-03T00:04:36.754Z,21.13
2022-12-03T00:07:39.896Z,20.47
2022-12-03T00:10:43.266Z,21.60
2022-12-03T00:13:46.596Z,21.37
2022-12-03T00:16:49.698Z,21.43
2022-12-03T00:19:54.193Z,20.23
2022-12-03T00:22:57.287Z,20.33
2022-12-03T00:26:00.395Z,21.00
2022-12-03T00:29:03.548Z,20.20
2022-12-03T00:32:07.058Z,22.20
2022-12-03T00:35:11.980Z,21.60
2022-12-03T00:38:15.262Z,20.27
2022-12-03T00:41:18.412Z,20.03
2022-12-03T00:44:21.559Z,20.93
2022-12-03T00:47:24.729Z,22.47
2022-12-03T00:50:29.197Z,19.80
2022-12-03T00:53:32.477Z,22.13
2022-12-03T00:56:35.593Z,20.63
2022-12-03T00:59:38.726Z,19.63
2022-12-03T01:02:41.859Z,20.37
2022-12-03T01:05:46.326Z,20.37
2022-12-03T01:08:49.474Z,20.20
2022-12-03T01:11:52.594Z,17.70
2022-12-03T01:14:56.125Z,18.03
2022-12-03T01:17:59.337Z,20.13
2022-12-03T01:21:03.861Z,18.93
2022-12-03T01:24:07.656Z,17.13
2022-12-03T01:27:10.849Z,18.70
2022-12-03T01:30:15.130Z,19.27
2022-12-03T01:33:17.259Z,19.30
2022-12-03T01:36:21.763Z,21.80
2022-12-03T01:39:24.890Z,19.27
2022-12-03T01:42:30.785Z,17.57
2022-12-03T01:45:33.958Z,17.90
2022-12-03T01:48:38.971Z,17.33
2022-12-03T01:51:43.443Z,16.60
2022-12-03T01:54:49.137Z,17.60
2022-12-03T01:57:54.943Z,17.57
2022-12-03T02:00:59.133Z,16.23
2022-12-03T02:04:02.299Z,16.67
2022-12-03T02:07:24.510Z,17.87
2022-12-03T02:10:33.071Z,16.77
2022-12-03T02:13:37.181Z,17.70
2022-12-03T02:16:42.322Z,16.73
2022-12-03T02:19:45.564Z,20.67
2022-12-03T02:22:57.184Z,18.37
2022-12-03T02:26:01.847Z,19.30
2022-12-03T02:29:05.353Z,17.70
2022-12-03T02:32:08.600Z,18.80
2022-12-03T02:35:15.751Z,18.00
2022-12-03T02:38:21.378Z,18.33
2022-12-03T02:41:43.687Z,20.50
2022-12-03T02:44:46.909Z,19.90
2022-12-03T02:47:52.880Z,20.20
2022-12-03T02:50:58.840Z,20.50
2022-12-03T02:54:02.424Z,17.47
2022-12-03T02:57:07.303Z,19.63
2022-12-03T03:00:12.033Z,19.00
2022-12-03T03:03:15.246Z,19.87
2022-12-03T03:06:20.273Z,18.83
2022-12-03T03:09:23.568Z,19.30
2022-12-03T03:12:28.042Z,17.30
2022-12-03T03:15:31.765Z,22.40
2022-12-03T03:18:35.777Z,19.77
2022-12-03T03:21:38.936Z,20.93
2022-12-03T03:24:42.133Z,19.83
2022-12-03T03:27:46.869Z,19.00
2022-12-03T03:30:50.191Z,19.90
2022-12-03T03:33:53.356Z,19.67
2022-12-03T03:36:56.500Z,20.47
2022-12-03T03:39:59.669Z,18.97
2022-12-03T03:43:04.440Z,25.17
2022-12-03T03:46:09.285Z,21.30
2022-12-03T03:49:13.432Z,20.93
2022-12-03T03:52:16.639Z,20.87
2022-12-03T03:55:20.494Z,19.70
2022-12-03T03:58:25.034Z,20.00
2022-12-03T04:01:29.096Z,20.40
2022-12-03T04:04:37.187Z,21.00
2022-12-03T04:07:40.419Z,18.67
2022-12-03T04:11:00.820Z,21.60
2022-12-03T04:14:05.331Z,21.23
2022-12-03T04:17:08.514Z,19.17
2022-12-03T04:20:12.908Z,20.00
2022-12-03T04:23:15.016Z,22.17
2022-12-03T04:26:35.520Z,20.93
2022-12-03T04:29:40.177Z,19.57
2022-12-03T04:33:00.832Z,22.90
2022-12-03T04:36:04.036Z,19.37
2022-12-03T04:39:07.267Z,20.27
2022-12-03T04:42:10.441Z,20.87
2022-12-03T04:45:15.027Z,20.80
2022-12-03T04:48:18.249Z,21.23
2022-12-03T04:51:21.364Z,22.33
2022-12-03T04:54:24.687Z,22.63
2022-12-03T04:57:27.815Z,21.23
2022-12-03T05:00:32.272Z,21.50
2022-12-03T05:03:35.394Z,23.50
2022-12-03T05:06:38.544Z,21.43
2022-12-03T05:09:41.631Z,19.77
2022-12-03T05:12:44.745Z,20.90
2022-12-03T05:15:49.243Z,21.10
2022-12-03T05:18:52.400Z,21.83
2022-12-03T05:21:55.513Z,22.27
2022-12-03T05:24:58.610Z,21.87
2022-12-03T05:28:01.739Z,20.10
2022-12-03T05:31:06.337Z,19.70
2022-12-03T05:34:09.569Z,24.37
2022-12-03T05:37:12.683Z,22.77
2022-12-03T05:40:17.128Z,20.20
2022-12-03T05:43:19.342Z,20.50
2022-12-03T05:46:23.967Z,20.80
2022-12-03T05:49:27.607Z,23.40
2022-12-03T05:52:30.820Z,22.07
2022-12-03T05:55:34.076Z,21.10
2022-12-03T05:58:37.424Z,22.00
2022-12-03T06:01:41.885Z,20.57
2022-12-03T06:04:44.984Z,23.07
2022-12-03T06:07:48.432Z,22.07
2022-12-03T06:10:51.621Z,27.57
2022-12-03T06:13:54.718Z,31.97
2022-12-03T06:16:59.396Z,28.37
2022-12-03T06:20:02.650Z,25.50
2022-12-03T06:23:05.782Z,26.50
2022-12-03T06:26:08.908Z,21.30
2022-12-03T06:29:12.215Z,23.73
2022-12-03T06:32:16.798Z,24.73
2022-12-03T06:35:19.905Z,24.50
2022-12-03T06:38:23.422Z,26.10
2022-12-03T06:41:26.551Z,27.27
2022-12-03T06:44:29.638Z,19.37
2022-12-03T06:47:34.091Z,21.43
2022-12-03T06:50:37.203Z,22.17
2022-12-03T06:53:40.323Z,21.10
2022-12-03T06:56:45.486Z,22.17
2022-12-03T06:59:48.842Z,22.23
2022-12-03T07:02:53.352Z,21.20
2022-12-03T07:05:56.675Z,21.93
2022-12-03T07:08:59.789Z,19.50
2022-12-03T07:12:02.898Z,21.03
2022-12-03T07:15:07.136Z,18.20
2022-12-03T07:18:11.618Z,20.80
2022-12-03T07:21:14.757Z,19.43
2022-12-03T07:24:17.875Z,19.60
2022-12-03T07:27:20.999Z,19.67
2022-12-03T07:30:25.709Z,19.63
2022-12-03T07:33:30.424Z,20.03
2022-12-03T07:36:33.539Z,18.30
2022-12-03T07:39:36.744Z,17.37
2022-12-03T07:42:39.838Z,20.60
2022-12-03T07:45:42.928Z,20.30
2022-12-03T07:48:47.425Z,18.80
2022-12-03T07:51:54.222Z,20.20
2022-12-03T07:54:57.328Z,20.37
2022-12-03T07:58:00.473Z,17.57
2022-12-03T08:01:03.680Z,19.33
2022-12-03T08:04:08.509Z,18.63
2022-12-03T08:07:11.670Z,18.13
2022-12-03T08:10:14.922Z,18.83
2022-12-03T08:13:19.800Z,16.83
2022-12-03T08:16:24.067Z,18.40
2022-12-03T08:19:28.639Z,16.07
2022-12-03T08:22:31.758Z,17.53
2022-12-03T08:25:35.320Z,20.67
2022-12-03T08:28:38.441Z,19.40
2022-12-03T08:31:42.056Z,19.93
2022-12-03T08:34:46.664Z,20.17
2022-12-03T08:37:56.808Z,21.67
2022-12-03T08:40:59.921Z,20.80
2022-12-03T08:44:12.211Z,19.67
2022-12-03T08:47:20.293Z,19.50
2022-12-03T08:50:29.783Z,18.40
2022-12-03T08:53:38.282Z,18.37
2022-12-03T08:56:43.980Z,18.70
2022-12-03T08:59:48.200Z,19.00
2022-12-03T09:02:54.316Z,17.93
2022-12-03T09:05:58.953Z,17.40
2022-12-03T09:09:06.520Z,17.53
2022-12-03T09:12:10.101Z,17.30
2022-12-03T09:15:13.417Z,17.70
2022-12-03T09:18:16.665Z,17.00
2022-12-03T09:21:21.151Z,17.13
2022-12-03T09:24:24.625Z,19.23
2022-12-03T09:27:27.772Z,18.60
2022-12-03T09:30:30.965Z,17.77
2022-12-03T09:33:34.081Z,17.83
2022-12-03T09:36:38.570Z,18.00
2022-12-03T09:39:41.742Z,16.87
2022-12-03T09:42:44.898Z,17.83
2022-12-03T09:45:48.830Z,18.73
2022-12-03T09:48:52.132Z,17.23
2022-12-03T09:51:57.832Z,19.10
2022-12-03T09:55:01.820Z,17.57
2022-12-03T09:58:12.921Z,16.73
2022-12-03T10:01:17.110Z,19.30
2022-12-03T10:04:20.632Z,17.10
2022-12-03T10:07:26.942Z,17.57
2022-12-03T10:10:30.150Z,17.60
2022-12-03T10:13:34.633Z,18.33
2022-12-03T10:16:40.317Z,18.73
2022-12-03T10:19:44.711Z,16.67
2022-12-03T10:22:49.269Z,16.83
2022-12-03T10:25:54.459Z,17.77
2022-12-03T10:28:57.543Z,15.80
2022-12-03T10:32:03.182Z,17.47
2022-12-03T10:35:12.966Z,17.43
2022-12-03T10:38:23.397Z,19.20
2022-12-03T10:41:28.723Z,19.80
2022-12-03T10:44:31.840Z,17.50
2022-12-03T10:47:35.212Z,17.50
2022-12-03T10:50:38.829Z,18.50
2022-12-03T10:53:43.485Z,18.87
2022-12-03T10:56:48.399Z,20.07
2022-12-03T10:59:51.706Z,22.17
2022-12-03T11:02:57.026Z,20.80
2022-12-03T11:06:02.956Z,19.23
2022-12-03T11:09:18.104Z,18.50
2022-12-03T11:12:23.550Z,19.27
2022-12-03T11:15:43.689Z,20.07
2022-12-03T11:19:01.224Z,20.43
2022-12-03T11:22:41.842Z,17.77
2022-12-03T11:25:51.473Z,18.67
2022-12-03T11:28:55.950Z,16.30
2022-12-03T11:31:59.052Z,18.13
2022-12-03T11:35:02.180Z,18.00
2022-12-03T11:38:53.035Z,18.23
2022-12-03T11:42:38.680Z,17.80
2022-12-03T11:45:41.846Z,17.77
2022-12-03T11:49:01.231Z,17.00
2022-12-03T11:52:21.829Z,18.23
2022-12-03T11:55:30.258Z,16.53
2022-12-03T11:58:35.976Z,16.30
2022-12-03T12:01:40.599Z,18.07
2022-12-03T12:04:47.596Z,18.20
2022-12-03T12:07:51.912Z,16.33
2022-12-03T12:10:55.083Z,15.57
2022-12-03T12:14:00.402Z,16.23
2022-12-03T12:17:05.081Z,16.00
2022-12-03T12:20:26.261Z,18.17
2022-12-03T12:23:30.356Z,15.73
2022-12-03T12:26:33.512Z,15.90
2022-12-03T12:29:39.650Z,16.40
2022-12-03T12:32:47.237Z,15.67
2022-12-03T12:35:50.671Z,17.93
2022-12-03T12:38:53.812Z,16.80
2022-12-03T12:41:56.996Z,16.40
2022-12-03T12:45:10.475Z,16.37
2022-12-03T12:48:21.065Z,17.90
2022-12-03T12:51:25.024Z,15.67
2022-12-03T12:54:28.186Z,15.70
2022-12-03T12:57:31.290Z,17.80
2022-12-03T13:00:35.962Z,17.10
2022-12-03T13:03:40.597Z,17.10
2022-12-03T13:06:43.907Z,16.70
2022-12-03T13:09:48.869Z,19.60
2022-12-03T13:12:51.999Z,19.77
2022-12-03T13:16:02.812Z,18.23
2022-12-03T13:19:20.883Z,17.80
2022-12-03T13:22:25.624Z,16.37
2022-12-03T13:29:07.363Z,16.70
2022-12-03T13:32:14.816Z,16.80
2022-12-03T13:35:27.715Z,17.73
2022-12-03T13:38:31.295Z,17.10
2022-12-03T13:41:52.351Z,18.03
2022-12-03T13:44:57.454Z,17.13
2022-12-03T13:48:03.940Z,19.20
2022-12-03T13:51:20.911Z,19.63
2022-12-03T13:54:27.606Z,18.90
2022-12-03T13:57:30.740Z,15.60
2022-12-03T14:00:33.873Z,17.27
2022-12-03T14:03:38.363Z,16.60
2022-12-03T14:06:41.495Z,14.87
2022-12-03T14:09:44.622Z,17.97
2022-12-03T14:12:47.768Z,17.53
2022-12-03T14:15:50.922Z,17.20
2022-12-03T14:18:55.412Z,17.80
2022-12-03T14:21:58.528Z,16.87
2022-12-03T14:25:01.635Z,17.63
2022-12-03T14:28:08.686Z,20.90
2022-12-03T14:31:11.996Z,19.37
2022-12-03T14:34:16.663Z,18.57
2022-12-03T14:37:19.901Z,20.10
2022-12-03T14:40:23.264Z,21.13
2022-12-03T14:43:26.429Z,17.33
2022-12-03T14:46:29.645Z,18.00
2022-12-03T14:49:34.231Z,16.10
2022-12-03T14:52:38.518Z,16.53
2022-12-03T14:55:41.613Z,16.60
2022-12-03T14:58:44.754Z,16.23
2022-12-03T15:01:47.891Z,16.57
2022-12-03T15:04:52.457Z,17.90
2022-12-03T15:07:55.713Z,16.60
2022-12-03T15:10:59.005Z,17.97
2022-12-03T15:14:02.352Z,16.20
2022-12-03T15:17:05.586Z,19.20
2022-12-03T15:20:12.364Z,18.40
2022-12-03T15:23:15.843Z,17.80
2022-12-03T15:26:19.038Z,17.20
2022-12-03T15:29:22.495Z,16.67
2022-12-03T15:32:25.633Z,16.93
2022-12-03T15:35:30.510Z,15.50
2022-12-03T15:38:34.640Z,14.50
2022-12-03T15:41:38.894Z,16.73
2022-12-03T15:44:42.112Z,15.93
2022-12-03T15:47:45.295Z,16.40
2022-12-03T15:50:50.344Z,16.60
2022-12-03T15:53:54.125Z,18.63
2022-12-03T15:56:57.977Z,18.30
2022-12-03T16:00:01.916Z,16.30
2022-12-03T16:03:05.299Z,17.70
2022-12-03T16:06:10.712Z,19.73
2022-12-03T16:09:14.147Z,17.70
2022-12-03T16:12:17.540Z,17.80
2022-12-03T16:15:26.701Z,16.60
2022-12-03T16:18:30.827Z,18.37
2022-12-03T16:21:35.775Z,18.13
2022-12-03T16:24:39.929Z,16.90
2022-12-03T16:27:43.929Z,17.93
2022-12-03T16:30:47.663Z,17.73
2022-12-03T16:33:51.712Z,18.60
2022-12-03T16:36:56.673Z,17.90
2022-12-03T16:40:00.525Z,17.90
2022-12-03T16:43:04.911Z,17.07
2022-12-03T16:46:21.438Z,19.03
2022-12-03T16:49:25.074Z,18.90
2022-12-03T16:52:30.806Z,17.70
2022-12-03T16:55:34.009Z,18.37
2022-12-03T16:58:37.583Z,19.03
2022-12-03T17:01:41.715Z,18.67
2022-12-03T17:04:45.591Z,19.43
2022-12-03T17:07:50.844Z,16.87
2022-12-03T17:10:54.465Z,18.97
2022-12-03T17:13:58.215Z,18.70
2022-12-03T17:17:01.455Z,18.30
2022-12-03T17:20:06.232Z,16.90
2022-12-03T17:23:12.293Z,17.60
2022-12-03T17:26:16.720Z,18.20
2022-12-03T17:29:20.220Z,19.37
2022-12-03T17:32:23.333Z,18.70
2022-12-03T17:35:27.154Z,19.37
2022-12-03T17:38:37.277Z,18.97
2022-12-03T17:41:42.534Z,22.73
2022-12-03T17:44:45.894Z,19.33
2022-12-03T17:47:49.781Z,21.27
2022-12-03T17:50:55.664Z,23.37
2022-12-03T17:54:00.653Z,21.33
2022-12-03T17:57:04.507Z,19.47
2022-12-03T18:00:09.817Z,18.77
2022-12-03T18:03:12.993Z,20.50
2022-12-03T18:06:16.450Z,17.47
2022-12-03T18:09:21.777Z,19.50
2022-12-03T18:12:25.246Z,19.40
2022-12-03T18:15:28.462Z,20.37
2022-12-03T18:18:31.916Z,20.27
2022-12-03T18:21:36.244Z,19.57
2022-12-03T18:24:40.823Z,19.87
2022-12-03T18:27:44.257Z,20.47
2022-12-03T18:30:52.532Z,18.60
2022-12-03T18:33:56.820Z,17.20
2022-12-03T18:37:01.160Z,18.50
2022-12-03T18:40:12.795Z,18.33
2022-12-03T18:43:18.052Z,19.13
2022-12-03T18:46:51.945Z,19.30
2022-12-03T18:49:46.619Z,19.57
2022-12-03T18:52:50.637Z,19.00
2022-12-03T18:55:56.743Z,20.73
2022-12-03T18:59:00.645Z,18.40
2022-12-03T19:02:05.015Z,19.83
2022-12-03T19:05:09.759Z,18.47
2022-12-03T19:08:15.859Z,17.17
2022-12-03T19:11:22.294Z,17.17
2022-12-03T19:14:26.423Z,17.10
2022-12-03T19:17:31.060Z,17.70
2022-12-03T19:20:35.013Z,18.57
2022-12-03T19:23:40.944Z,19.10
2022-12-03T19:26:47.618Z,17.10
2022-12-03T19:29:53.384Z,17.90
2022-12-03T19:32:59.539Z,18.27
2022-12-03T19:36:05.405Z,16.83
2022-12-03T19:39:09.842Z,18.70
2022-12-03T19:42:23.783Z,16.87
2022-12-03T19:45:29.268Z,17.10
2022-12-03T19:48:35.068Z,18.10
2022-12-03T19:51:40.255Z,18.80
2022-12-03T19:54:45.814Z,18.23
2022-12-03T19:57:51.139Z,18.07
2022-12-03T20:01:03.639Z,20.03
2022-12-03T20:04:08.729Z,16.70
2022-12-03T20:07:13.636Z,18.10
2022-12-03T20:10:18.442Z,18.10
2022-12-03T20:13:24.581Z,16.90
2022-12-03T20:16:30.878Z,22.47
2022-12-03T20:19:36.546Z,23.47
2022-12-03T20:22:40.921Z,23.23
2022-12-03T20:25:45.944Z,22.17
2022-12-03T20:28:54.232Z,17.70
2022-12-03T20:32:01.210Z,19.50
2022-12-03T20:35:10.700Z,18.63
2022-12-03T20:38:15.470Z,18.57
2022-12-03T20:41:20.751Z,19.67
2022-12-03T20:44:26.187Z,17.80
2022-12-03T20:47:30.134Z,19.57
2022-12-03T20:50:34.960Z,18.97
2022-12-03T20:53:39.561Z,18.10
2022-12-03T20:56:44.295Z,18.70
2022-12-03T20:59:49.891Z,18.27
2022-12-03T21:02:53.844Z,18.53
2022-12-03T21:06:02.012Z,20.43
2022-12-03T21:09:07.875Z,18.87
2022-12-03T21:12:11.792Z,18.13
2022-12-03T21:15:17.387Z,16.70
2022-12-03T21:18:21.391Z,17.13
2022-12-03T21:21:25.007Z,17.73
2022-12-03T21:24:28.156Z,18.03
2022-12-03T21:27:32.014Z,16.63
2022-12-03T21:30:39.712Z,16.87
2022-12-03T21:33:43.329Z,17.37
2022-12-03T21:36:46.500Z,16.33
2022-12-03T21:39:50.060Z,17.93
2022-12-03T21:42:54.284Z,18.33
2022-12-03T21:46:01.311Z,21.37
2022-12-03T21:49:04.992Z,18.40
2022-12-03T21:52:09.083Z,16.37
2022-12-03T21:55:13.045Z,16.87
2022-12-03T21:58:18.690Z,16.70
2022-12-03T22:01:25.922Z,15.07
2022-12-03T22:04:29.482Z,14.93
2022-12-03T22:07:35.158Z,16.20
2022-12-03T22:10:38.633Z,22.70
2022-12-03T22:13:42.639Z,18.33
2022-12-03T22:16:47.125Z,15.83
2022-12-03T22:19:50.265Z,15.97
2022-12-03T22:22:53.371Z,15.70
2022-12-03T22:26:00.558Z,17.53
2022-12-03T22:29:03.656Z,14.87
2022-12-03T22:32:08.255Z,16.10
2022-12-03T22:35:11.512Z,15.27
2022-12-03T22:38:14.628Z,15.67
2022-12-03T22:41:18.194Z,15.43
2022-12-03T22:44:21.290Z,15.60
2022-12-03T22:47:25.791Z,16.40
2022-12-03T22:50:28.865Z,15.33
2022-12-03T22:53:32.088Z,16.90
2022-12-03T22:56:35.212Z,14.67
2022-12-03T22:59:38.305Z,17.07
2022-12-03T23:02:42.827Z,14.67
2022-12-03T23:05:46.037Z,16.90
2022-12-03T23:08:49.719Z,15.60
2022-12-03T23:11:52.845Z,16.47
2022-12-03T23:14:56.235Z,16.30
2022-12-03T23:18:01.349Z,15.17
2022-12-03T23:21:04.479Z,15.87
2022-12-03T23:24:08.083Z,18.17
2022-12-03T23:27:11.221Z,16.90
2022-12-03T23:30:15.886Z,15.83
2022-12-03T23:33:20.472Z,18.13
2022-12-03T23:36:25.302Z,19.00
2022-12-03T23:39:28.460Z,14.90
2022-12-03T23:42:31.620Z,15.40
2022-12-03T23:45:35.468Z,15.93
2022-12-03T23:48:40.536Z,16.77
2022-12-03T23:51:43.768Z,15.70
2022-12-03T23:54:46.946Z,14.40
2022-12-03T23:57:50.063Z,14.00
